sensor_id;sensor_type;location;lat;lon;timestamp;P1;durP1;ratioP1;P2;durP2;ratioP2
78508;SDS011;67802;50.846;7.958;2023-08-31T00:00:32;4.78;;;1.63;;
78508;SDS011;67802;50.846;7.958;2023-08-31T00:02:59;5.38;;;1.80;;
78508;SDS011;67802;50.846;7.958;2023-08-31T00:05:25;4.05;;;1.55;;
78508;SDS011;67802;50.846;7.958;2023-08-31T00:07:53;3.53;;;1.70;;
78508;SDS011;67802;50.846;7.958;2023-08-31T00:10:18;3.53;;;1.40;;
78508;SDS011;67802;50.846;7.958;2023-08-31T00:12:44;3.20;;;1.48;;
78508;SDS011;67802;50.846;7.958;2023-08-31T00:15:10;3.30;;;1.58;;
78508;SDS011;67802;50.846;7.958;2023-08-31T00:17:35;3.05;;;1.55;;
78508;SDS011;67802;50.846;7.958;2023-08-31T00:20:01;3.13;;;1.58;;
78508;SDS011;67802;50.846;7.958;2023-08-31T00:22:27;3.53;;;1.45;;
78508;SDS011;67802;50.846;7.958;2023-08-31T00:24:53;5.07;;;1.58;;
78508;SDS011;67802;50.846;7.958;2023-08-31T00:27:18;3.47;;;1.50;;
78508;SDS011;67802;50.846;7.958;2023-08-31T00:29:45;3.92;;;1.50;;
78508;SDS011;67802;50.846;7.958;2023-08-31T00:32:14;3.38;;;1.27;;
78508;SDS011;67802;50.846;7.958;2023-08-31T00:34:40;4.90;;;1.60;;
78508;SDS011;67802;50.846;7.958;2023-08-31T00:37:05;3.00;;;1.40;;
78508;SDS011;67802;50.846;7.958;2023-08-31T00:39:31;4.28;;;1.58;;
78508;SDS011;67802;50.846;7.958;2023-08-31T00:41:58;4.63;;;1.60;;
78508;SDS011;67802;50.846;7.958;2023-08-31T00:44:24;4.60;;;1.60;;
78508;SDS011;67802;50.846;7.958;2023-08-31T00:46:49;3.85;;;1.63;;
78508;SDS011;67802;50.846;7.958;2023-08-31T00:49:15;4.65;;;1.90;;
78508;SDS011;67802;50.846;7.958;2023-08-31T00:51:40;3.05;;;1.40;;
78508;SDS011;67802;50.846;7.958;2023-08-31T00:54:06;3.63;;;1.73;;
78508;SDS011;67802;50.846;7.958;2023-08-31T00:56:32;4.05;;;1.58;;
78508;SDS011;67802;50.846;7.958;2023-08-31T00:58:58;3.50;;;1.52;;
78508;SDS011;67802;50.846;7.958;2023-08-31T01:01:28;3.40;;;1.67;;
78508;SDS011;67802;50.846;7.958;2023-08-31T01:12:18;4.70;;;1.48;;
78508;SDS011;67802;50.846;7.958;2023-08-31T01:14:50;2.95;;;1.38;;
78508;SDS011;67802;50.846;7.958;2023-08-31T01:17:22;3.25;;;1.33;;
78508;SDS011;67802;50.846;7.958;2023-08-31T01:19:49;3.97;;;1.50;;
78508;SDS011;67802;50.846;7.958;2023-08-31T01:25:22;3.40;;;1.50;;
78508;SDS011;67802;50.846;7.958;2023-08-31T01:27:47;3.30;;;1.48;;
78508;SDS011;67802;50.846;7.958;2023-08-31T01:30:13;2.55;;;1.30;;
78508;SDS011;67802;50.846;7.958;2023-08-31T01:32:42;4.68;;;1.70;;
78508;SDS011;67802;50.846;7.958;2023-08-31T01:35:10;4.80;;;1.48;;
78508;SDS011;67802;50.846;7.958;2023-08-31T01:37:39;2.58;;;1.20;;
78508;SDS011;67802;50.846;7.958;2023-08-31T01:40:17;4.72;;;1.42;;
78508;SDS011;67802;50.846;7.958;2023-08-31T01:42:48;5.00;;;1.33;;
78508;SDS011;67802;50.846;7.958;2023-08-31T01:45:17;3.25;;;1.17;;
78508;SDS011;67802;50.846;7.958;2023-08-31T01:47:45;3.28;;;1.40;;
78508;SDS011;67802;50.846;7.958;2023-08-31T01:50:11;2.72;;;1.23;;
78508;SDS011;67802;50.846;7.958;2023-08-31T01:52:37;2.83;;;1.23;;
78508;SDS011;67802;50.846;7.958;2023-08-31T01:55:02;2.97;;;1.30;;
78508;SDS011;67802;50.846;7.958;2023-08-31T01:57:28;3.58;;;1.42;;
78508;SDS011;67802;50.846;7.958;2023-08-31T01:59:53;3.55;;;1.25;;
78508;SDS011;67802;50.846;7.958;2023-08-31T02:02:19;4.50;;;1.42;;
78508;SDS011;67802;50.846;7.958;2023-08-31T02:04:44;3.25;;;1.40;;
78508;SDS011;67802;50.846;7.958;2023-08-31T02:07:11;2.92;;;1.23;;
78508;SDS011;67802;50.846;7.958;2023-08-31T02:09:36;3.17;;;1.40;;
78508;SDS011;67802;50.846;7.958;2023-08-31T02:12:01;3.50;;;1.27;;
78508;SDS011;67802;50.846;7.958;2023-08-31T02:14:29;2.55;;;1.25;;
78508;SDS011;67802;50.846;7.958;2023-08-31T02:16:54;2.90;;;1.30;;
78508;SDS011;67802;50.846;7.958;2023-08-31T02:19:20;3.33;;;1.20;;
78508;SDS011;67802;50.846;7.958;2023-08-31T02:21:45;2.40;;;1.13;;
78508;SDS011;67802;50.846;7.958;2023-08-31T02:24:10;2.50;;;1.02;;
78508;SDS011;67802;50.846;7.958;2023-08-31T02:26:36;3.53;;;1.38;;
78508;SDS011;67802;50.846;7.958;2023-08-31T02:29:02;2.80;;;1.20;;
78508;SDS011;67802;50.846;7.958;2023-08-31T02:31:28;2.63;;;1.00;;
78508;SDS011;67802;50.846;7.958;2023-08-31T02:33:53;2.72;;;1.20;;
78508;SDS011;67802;50.846;7.958;2023-08-31T02:36:18;2.85;;;1.13;;
78508;SDS011;67802;50.846;7.958;2023-08-31T02:38:45;3.67;;;1.30;;
78508;SDS011;67802;50.846;7.958;2023-08-31T02:41:11;3.38;;;1.30;;
78508;SDS011;67802;50.846;7.958;2023-08-31T02:43:36;2.97;;;1.05;;
78508;SDS011;67802;50.846;7.958;2023-08-31T02:46:02;2.42;;;1.00;;
78508;SDS011;67802;50.846;7.958;2023-08-31T02:48:28;3.38;;;1.27;;
78508;SDS011;67802;50.846;7.958;2023-08-31T02:50:56;2.95;;;1.20;;
78508;SDS011;67802;50.846;7.958;2023-08-31T02:53:22;3.85;;;1.20;;
78508;SDS011;67802;50.846;7.958;2023-08-31T02:55:48;3.40;;;1.40;;
78508;SDS011;67802;50.846;7.958;2023-08-31T02:58:15;2.17;;;1.10;;
78508;SDS011;67802;50.846;7.958;2023-08-31T03:00:41;2.47;;;1.02;;
78508;SDS011;67802;50.846;7.958;2023-08-31T03:03:07;3.28;;;1.30;;
78508;SDS011;67802;50.846;7.958;2023-08-31T03:05:33;2.58;;;1.10;;
78508;SDS011;67802;50.846;7.958;2023-08-31T03:07:59;2.88;;;1.10;;
78508;SDS011;67802;50.846;7.958;2023-08-31T03:10:24;3.55;;;1.20;;
78508;SDS011;67802;50.846;7.958;2023-08-31T03:12:49;2.03;;;1.08;;
78508;SDS011;67802;50.846;7.958;2023-08-31T03:15:15;3.25;;;0.95;;
78508;SDS011;67802;50.846;7.958;2023-08-31T03:17:40;3.97;;;1.27;;
78508;SDS011;67802;50.846;7.958;2023-08-31T03:20:06;2.70;;;1.07;;
78508;SDS011;67802;50.846;7.958;2023-08-31T03:22:32;2.72;;;1.13;;
78508;SDS011;67802;50.846;7.958;2023-08-31T03:24:57;3.40;;;1.20;;
78508;SDS011;67802;50.846;7.958;2023-08-31T03:27:22;4.90;;;1.20;;
78508;SDS011;67802;50.846;7.958;2023-08-31T03:29:48;2.92;;;1.00;;
78508;SDS011;67802;50.846;7.958;2023-08-31T03:32:13;3.00;;;1.20;;
78508;SDS011;67802;50.846;7.958;2023-08-31T03:34:39;2.63;;;1.00;;
78508;SDS011;67802;50.846;7.958;2023-08-31T03:37:04;2.10;;;0.90;;
78508;SDS011;67802;50.846;7.958;2023-08-31T03:39:29;2.67;;;1.10;;
78508;SDS011;67802;50.846;7.958;2023-08-31T03:41:54;3.42;;;1.25;;
78508;SDS011;67802;50.846;7.958;2023-08-31T03:44:20;3.08;;;1.13;;
78508;SDS011;67802;50.846;7.958;2023-08-31T03:46:46;3.22;;;1.38;;
78508;SDS011;67802;50.846;7.958;2023-08-31T03:49:11;2.60;;;1.10;;
78508;SDS011;67802;50.846;7.958;2023-08-31T03:51:37;2.55;;;1.17;;
78508;SDS011;67802;50.846;7.958;2023-08-31T03:54:02;2.88;;;1.05;;
78508;SDS011;67802;50.846;7.958;2023-08-31T03:56:27;4.32;;;1.42;;
78508;SDS011;67802;50.846;7.958;2023-08-31T03:58:53;4.97;;;1.23;;
78508;SDS011;67802;50.846;7.958;2023-08-31T04:01:18;2.33;;;1.08;;
78508;SDS011;67802;50.846;7.958;2023-08-31T04:03:44;2.40;;;1.10;;
78508;SDS011;67802;50.846;7.958;2023-08-31T04:06:09;4.03;;;1.02;;
78508;SDS011;67802;50.846;7.958;2023-08-31T04:08:35;2.45;;;1.10;;
78508;SDS011;67802;50.846;7.958;2023-08-31T04:11:00;2.35;;;1.15;;
78508;SDS011;67802;50.846;7.958;2023-08-31T04:13:25;2.75;;;1.13;;
78508;SDS011;67802;50.846;7.958;2023-08-31T04:15:52;2.47;;;1.20;;
78508;SDS011;67802;50.846;7.958;2023-08-31T04:18:17;2.70;;;0.95;;
78508;SDS011;67802;50.846;7.958;2023-08-31T04:20:47;2.10;;;1.10;;
78508;SDS011;67802;50.846;7.958;2023-08-31T04:23:13;3.17;;;1.23;;
78508;SDS011;67802;50.846;7.958;2023-08-31T04:25:39;3.38;;;1.27;;
78508;SDS011;67802;50.846;7.958;2023-08-31T04:28:04;2.38;;;1.10;;
78508;SDS011;67802;50.846;7.958;2023-08-31T04:30:29;3.67;;;1.10;;
78508;SDS011;67802;50.846;7.958;2023-08-31T04:32:56;2.85;;;1.15;;
78508;SDS011;67802;50.846;7.958;2023-08-31T04:35:21;2.20;;;1.10;;
78508;SDS011;67802;50.846;7.958;2023-08-31T04:37:46;2.70;;;1.02;;
78508;SDS011;67802;50.846;7.958;2023-08-31T04:40:12;2.15;;;1.00;;
78508;SDS011;67802;50.846;7.958;2023-08-31T04:42:37;1.67;;;1.00;;
78508;SDS011;67802;50.846;7.958;2023-08-31T04:45:03;2.35;;;1.10;;
78508;SDS011;67802;50.846;7.958;2023-08-31T04:47:29;3.33;;;1.27;;
78508;SDS011;67802;50.846;7.958;2023-08-31T04:49:54;2.60;;;1.10;;
78508;SDS011;67802;50.846;7.958;2023-08-31T04:52:21;3.95;;;1.20;;
78508;SDS011;67802;50.846;7.958;2023-08-31T04:54:46;2.58;;;1.05;;
78508;SDS011;67802;50.846;7.958;2023-08-31T04:57:11;3.00;;;1.20;;
78508;SDS011;67802;50.846;7.958;2023-08-31T04:59:37;2.88;;;1.08;;
78508;SDS011;67802;50.846;7.958;2023-08-31T05:02:02;1.88;;;1.00;;
78508;SDS011;67802;50.846;7.958;2023-08-31T05:04:27;2.47;;;1.00;;
78508;SDS011;67802;50.846;7.958;2023-08-31T05:06:53;3.00;;;1.23;;
78508;SDS011;67802;50.846;7.958;2023-08-31T05:09:19;3.75;;;1.17;;
78508;SDS011;67802;50.846;7.958;2023-08-31T05:11:45;2.17;;;1.00;;
78508;SDS011;67802;50.846;7.958;2023-08-31T05:14:10;2.42;;;1.00;;
78508;SDS011;67802;50.846;7.958;2023-08-31T05:16:36;2.08;;;0.93;;
78508;SDS011;67802;50.846;7.958;2023-08-31T05:19:01;2.97;;;1.10;;
78508;SDS011;67802;50.846;7.958;2023-08-31T05:21:27;3.63;;;1.30;;
78508;SDS011;67802;50.846;7.958;2023-08-31T05:23:53;3.22;;;1.10;;
78508;SDS011;67802;50.846;7.958;2023-08-31T05:26:18;4.63;;;1.20;;
78508;SDS011;67802;50.846;7.958;2023-08-31T05:28:43;2.05;;;1.00;;
78508;SDS011;67802;50.846;7.958;2023-08-31T05:31:09;3.67;;;1.27;;
78508;SDS011;67802;50.846;7.958;2023-08-31T05:33:34;2.58;;;1.20;;
78508;SDS011;67802;50.846;7.958;2023-08-31T05:36:02;2.17;;;1.05;;
78508;SDS011;67802;50.846;7.958;2023-08-31T05:38:31;3.03;;;1.20;;
78508;SDS011;67802;50.846;7.958;2023-08-31T05:41:03;2.42;;;1.10;;
78508;SDS011;67802;50.846;7.958;2023-08-31T05:43:32;2.90;;;1.10;;
78508;SDS011;67802;50.846;7.958;2023-08-31T05:46:01;2.67;;;1.08;;
78508;SDS011;67802;50.846;7.958;2023-08-31T05:48:27;3.45;;;1.00;;
78508;SDS011;67802;50.846;7.958;2023-08-31T05:50:53;3.33;;;1.20;;
78508;SDS011;67802;50.846;7.958;2023-08-31T05:53:19;2.70;;;1.27;;
78508;SDS011;67802;50.846;7.958;2023-08-31T05:55:45;2.00;;;1.00;;
78508;SDS011;67802;50.846;7.958;2023-08-31T05:58:10;2.45;;;1.08;;
78508;SDS011;67802;50.846;7.958;2023-08-31T06:00:36;3.72;;;1.27;;
78508;SDS011;67802;50.846;7.958;2023-08-31T06:03:01;3.08;;;1.00;;
78508;SDS011;67802;50.846;7.958;2023-08-31T06:05:29;3.03;;;1.20;;
78508;SDS011;67802;50.846;7.958;2023-08-31T06:07:56;2.55;;;1.20;;
78508;SDS011;67802;50.846;7.958;2023-08-31T06:10:21;2.85;;;1.20;;
78508;SDS011;67802;50.846;7.958;2023-08-31T06:12:48;2.75;;;0.93;;
78508;SDS011;67802;50.846;7.958;2023-08-31T06:15:13;3.33;;;1.10;;
78508;SDS011;67802;50.846;7.958;2023-08-31T06:17:40;3.00;;;1.20;;
78508;SDS011;67802;50.846;7.958;2023-08-31T06:20:06;3.03;;;1.08;;
78508;SDS011;67802;50.846;7.958;2023-08-31T06:22:33;5.93;;;1.30;;
78508;SDS011;67802;50.846;7.958;2023-08-31T06:24:59;2.80;;;1.10;;
78508;SDS011;67802;50.846;7.958;2023-08-31T06:27:24;2.25;;;1.05;;
78508;SDS011;67802;50.846;7.958;2023-08-31T06:29:50;3.15;;;1.20;;
78508;SDS011;67802;50.846;7.958;2023-08-31T06:32:15;2.50;;;1.10;;
78508;SDS011;67802;50.846;7.958;2023-08-31T06:34:41;2.72;;;1.13;;
78508;SDS011;67802;50.846;7.958;2023-08-31T06:37:06;2.27;;;1.00;;
78508;SDS011;67802;50.846;7.958;2023-08-31T06:39:32;4.00;;;1.20;;
78508;SDS011;67802;50.846;7.958;2023-08-31T06:41:58;2.75;;;1.20;;
78508;SDS011;67802;50.846;7.958;2023-08-31T06:44:23;3.92;;;1.20;;
78508;SDS011;67802;50.846;7.958;2023-08-31T06:46:49;3.45;;;1.30;;
78508;SDS011;67802;50.846;7.958;2023-08-31T06:49:14;2.28;;;1.00;;
78508;SDS011;67802;50.846;7.958;2023-08-31T06:51:40;2.80;;;1.10;;
78508;SDS011;67802;50.846;7.958;2023-08-31T06:54:05;2.83;;;1.10;;
78508;SDS011;67802;50.846;7.958;2023-08-31T06:56:34;3.90;;;1.20;;
78508;SDS011;67802;50.846;7.958;2023-08-31T06:59:00;3.70;;;1.30;;
78508;SDS011;67802;50.846;7.958;2023-08-31T07:01:26;3.45;;;1.15;;
78508;SDS011;67802;50.846;7.958;2023-08-31T07:03:52;1.90;;;0.90;;
78508;SDS011;67802;50.846;7.958;2023-08-31T07:06:18;3.05;;;1.15;;
78508;SDS011;67802;50.846;7.958;2023-08-31T07:08:43;4.63;;;1.20;;
78508;SDS011;67802;50.846;7.958;2023-08-31T07:11:10;2.33;;;1.13;;
78508;SDS011;67802;50.846;7.958;2023-08-31T07:13:36;2.17;;;0.90;;
78508;SDS011;67802;50.846;7.958;2023-08-31T07:16:01;3.10;;;1.03;;
78508;SDS011;67802;50.846;7.958;2023-08-31T07:18:27;2.20;;;1.10;;
78508;SDS011;67802;50.846;7.958;2023-08-31T07:20:52;2.83;;;1.33;;
78508;SDS011;67802;50.846;7.958;2023-08-31T07:23:17;3.47;;;1.20;;
78508;SDS011;67802;50.846;7.958;2023-08-31T07:25:43;3.05;;;1.40;;
78508;SDS011;67802;50.846;7.958;2023-08-31T07:28:08;3.22;;;1.00;;
78508;SDS011;67802;50.846;7.958;2023-08-31T07:30:34;3.33;;;1.20;;
78508;SDS011;67802;50.846;7.958;2023-08-31T07:33:00;2.40;;;1.17;;
78508;SDS011;67802;50.846;7.958;2023-08-31T07:35:28;2.58;;;1.25;;
78508;SDS011;67802;50.846;7.958;2023-08-31T07:37:54;3.42;;;1.30;;
78508;SDS011;67802;50.846;7.958;2023-08-31T07:40:19;3.10;;;1.20;;
78508;SDS011;67802;50.846;7.958;2023-08-31T07:42:44;2.22;;;0.93;;
78508;SDS011;67802;50.846;7.958;2023-08-31T07:45:09;2.95;;;1.40;;
78508;SDS011;67802;50.846;7.958;2023-08-31T07:47:35;3.13;;;1.10;;
78508;SDS011;67802;50.846;7.958;2023-08-31T07:50:00;3.33;;;1.15;;
78508;SDS011;67802;50.846;7.958;2023-08-31T07:52:26;2.70;;;1.27;;
78508;SDS011;67802;50.846;7.958;2023-08-31T07:54:52;2.65;;;1.20;;
78508;SDS011;67802;50.846;7.958;2023-08-31T07:57:18;2.72;;;1.15;;
78508;SDS011;67802;50.846;7.958;2023-08-31T07:59:44;3.65;;;1.38;;
78508;SDS011;67802;50.846;7.958;2023-08-31T08:02:09;3.60;;;1.30;;
78508;SDS011;67802;50.846;7.958;2023-08-31T08:04:34;2.67;;;1.13;;
78508;SDS011;67802;50.846;7.958;2023-08-31T08:06:59;3.15;;;1.10;;
78508;SDS011;67802;50.846;7.958;2023-08-31T08:09:25;3.70;;;1.15;;
78508;SDS011;67802;50.846;7.958;2023-08-31T08:11:50;3.40;;;1.20;;
78508;SDS011;67802;50.846;7.958;2023-08-31T08:14:16;3.58;;;1.30;;
78508;SDS011;67802;50.846;7.958;2023-08-31T08:16:41;2.92;;;1.25;;
78508;SDS011;67802;50.846;7.958;2023-08-31T08:19:07;2.33;;;1.20;;
78508;SDS011;67802;50.846;7.958;2023-08-31T08:21:32;2.45;;;1.00;;
78508;SDS011;67802;50.846;7.958;2023-08-31T08:23:58;2.90;;;1.15;;
78508;SDS011;67802;50.846;7.958;2023-08-31T08:26:24;3.90;;;1.20;;
78508;SDS011;67802;50.846;7.958;2023-08-31T08:28:49;3.67;;;1.20;;
78508;SDS011;67802;50.846;7.958;2023-08-31T08:31:14;2.47;;;1.10;;
78508;SDS011;67802;50.846;7.958;2023-08-31T08:33:40;3.13;;;1.17;;
78508;SDS011;67802;50.846;7.958;2023-08-31T08:36:05;4.55;;;1.65;;
78508;SDS011;67802;50.846;7.958;2023-08-31T08:38:30;3.55;;;1.42;;
78508;SDS011;67802;50.846;7.958;2023-08-31T08:40:56;2.70;;;1.20;;
78508;SDS011;67802;50.846;7.958;2023-08-31T08:43:24;3.13;;;1.27;;
78508;SDS011;67802;50.846;7.958;2023-08-31T08:45:51;3.17;;;1.30;;
78508;SDS011;67802;50.846;7.958;2023-08-31T08:48:17;3.28;;;1.45;;
78508;SDS011;67802;50.846;7.958;2023-08-31T08:50:43;2.55;;;1.27;;
78508;SDS011;67802;50.846;7.958;2023-08-31T08:53:08;3.33;;;1.30;;
78508;SDS011;67802;50.846;7.958;2023-08-31T08:55:35;4.40;;;1.60;;
78508;SDS011;67802;50.846;7.958;2023-08-31T08:58:01;3.47;;;1.50;;
78508;SDS011;67802;50.846;7.958;2023-08-31T09:00:28;3.70;;;1.20;;
78508;SDS011;67802;50.846;7.958;2023-08-31T09:02:55;3.72;;;1.52;;
78508;SDS011;67802;50.846;7.958;2023-08-31T09:05:20;4.13;;;1.40;;
78508;SDS011;67802;50.846;7.958;2023-08-31T09:08:08;3.55;;;1.58;;
78508;SDS011;67802;50.846;7.958;2023-08-31T09:13:11;3.75;;;1.40;;
78508;SDS011;67802;50.846;7.958;2023-08-31T09:15:45;3.53;;;1.33;;
78508;SDS011;67802;50.846;7.958;2023-08-31T09:20:45;2.55;;;1.27;;
78508;SDS011;67802;50.846;7.958;2023-08-31T09:23:12;2.97;;;1.40;;
78508;SDS011;67802;50.846;7.958;2023-08-31T09:25:56;3.85;;;1.20;;
78508;SDS011;67802;50.846;7.958;2023-08-31T09:28:26;3.90;;;1.30;;
78508;SDS011;67802;50.846;7.958;2023-08-31T09:30:52;3.17;;;1.45;;
78508;SDS011;67802;50.846;7.958;2023-08-31T09:33:28;2.53;;;1.20;;
78508;SDS011;67802;50.846;7.958;2023-08-31T09:35:55;3.28;;;1.40;;
78508;SDS011;67802;50.846;7.958;2023-08-31T09:38:21;3.95;;;1.38;;
78508;SDS011;67802;50.846;7.958;2023-08-31T09:40:47;4.20;;;1.50;;
78508;SDS011;67802;50.846;7.958;2023-08-31T09:43:18;3.63;;;1.40;;
78508;SDS011;67802;50.846;7.958;2023-08-31T09:45:44;3.20;;;1.20;;
78508;SDS011;67802;50.846;7.958;2023-08-31T09:48:10;3.08;;;1.33;;
78508;SDS011;67802;50.846;7.958;2023-08-31T09:50:36;5.70;;;1.50;;
78508;SDS011;67802;50.846;7.958;2023-08-31T09:53:04;4.18;;;1.70;;
78508;SDS011;67802;50.846;7.958;2023-08-31T09:55:33;5.57;;;2.00;;
78508;SDS011;67802;50.846;7.958;2023-08-31T09:58:01;5.80;;;2.30;;
78508;SDS011;67802;50.846;7.958;2023-08-31T10:00:29;5.80;;;2.25;;
78508;SDS011;67802;50.846;7.958;2023-08-31T10:02:56;8.05;;;3.17;;
78508;SDS011;67802;50.846;7.958;2023-08-31T10:05:23;13.52;;;5.82;;
78508;SDS011;67802;50.846;7.958;2023-08-31T10:07:49;9.20;;;4.00;;
78508;SDS011;67802;50.846;7.958;2023-08-31T10:10:16;10.40;;;4.50;;
78508;SDS011;67802;50.846;7.958;2023-08-31T10:12:44;13.13;;;5.78;;
78508;SDS011;67802;50.846;7.958;2023-08-31T10:15:10;12.10;;;4.93;;
78508;SDS011;67802;50.846;7.958;2023-08-31T10:17:37;12.45;;;5.65;;
78508;SDS011;67802;50.846;7.958;2023-08-31T10:20:04;15.23;;;7.68;;
78508;SDS011;67802;50.846;7.958;2023-08-31T10:22:31;19.80;;;7.32;;
78508;SDS011;67802;50.846;7.958;2023-08-31T10:25:01;13.60;;;5.90;;
78508;SDS011;67802;50.846;7.958;2023-08-31T10:27:38;12.93;;;5.45;;
78508;SDS011;67802;50.846;7.958;2023-08-31T10:32:42;17.35;;;6.78;;
78508;SDS011;67802;50.846;7.958;2023-08-31T10:35:08;15.77;;;5.53;;
78508;SDS011;67802;50.846;7.958;2023-08-31T10:37:34;11.02;;;5.35;;
78508;SDS011;67802;50.846;7.958;2023-08-31T10:40:09;13.23;;;6.03;;
78508;SDS011;67802;50.846;7.958;2023-08-31T10:42:46;11.25;;;4.78;;
78508;SDS011;67802;50.846;7.958;2023-08-31T10:45:12;12.30;;;4.75;;
78508;SDS011;67802;50.846;7.958;2023-08-31T10:47:42;13.57;;;5.30;;
78508;SDS011;67802;50.846;7.958;2023-08-31T10:50:20;11.40;;;4.85;;
78508;SDS011;67802;50.846;7.958;2023-08-31T10:52:47;9.15;;;4.40;;
78508;SDS011;67802;50.846;7.958;2023-08-31T10:55:14;11.77;;;4.53;;
78508;SDS011;67802;50.846;7.958;2023-08-31T10:57:40;11.65;;;4.35;;
78508;SDS011;67802;50.846;7.958;2023-08-31T11:00:06;11.23;;;4.45;;
78508;SDS011;67802;50.846;7.958;2023-08-31T11:05:09;11.05;;;4.13;;
78508;SDS011;67802;50.846;7.958;2023-08-31T11:07:44;8.50;;;3.45;;
78508;SDS011;67802;50.846;7.958;2023-08-31T11:10:13;9.25;;;3.85;;
78508;SDS011;67802;50.846;7.958;2023-08-31T11:12:49;9.43;;;3.38;;
78508;SDS011;67802;50.846;7.958;2023-08-31T11:15:16;8.98;;;3.58;;
78508;SDS011;67802;50.846;7.958;2023-08-31T11:17:43;9.70;;;3.10;;
78508;SDS011;67802;50.846;7.958;2023-08-31T11:20:12;8.55;;;3.85;;
78508;SDS011;67802;50.846;7.958;2023-08-31T11:22:40;9.52;;;3.35;;
78508;SDS011;67802;50.846;7.958;2023-08-31T11:25:06;8.82;;;3.30;;
78508;SDS011;67802;50.846;7.958;2023-08-31T11:27:33;8.85;;;3.42;;
78508;SDS011;67802;50.846;7.958;2023-08-31T11:29:59;7.68;;;2.90;;
78508;SDS011;67802;50.846;7.958;2023-08-31T11:32:24;10.32;;;3.38;;
78508;SDS011;67802;50.846;7.958;2023-08-31T11:34:49;6.82;;;2.95;;
78508;SDS011;67802;50.846;7.958;2023-08-31T11:37:15;7.10;;;2.92;;
78508;SDS011;67802;50.846;7.958;2023-08-31T11:39:50;8.27;;;3.05;;
78508;SDS011;67802;50.846;7.958;2023-08-31T11:42:16;8.48;;;3.00;;
78508;SDS011;67802;50.846;7.958;2023-08-31T11:44:47;7.25;;;2.97;;
78508;SDS011;67802;50.846;7.958;2023-08-31T11:47:13;7.95;;;2.70;;
78508;SDS011;67802;50.846;7.958;2023-08-31T11:49:40;7.03;;;2.50;;
78508;SDS011;67802;50.846;7.958;2023-08-31T11:52:06;7.43;;;2.30;;
78508;SDS011;67802;50.846;7.958;2023-08-31T11:54:36;6.78;;;2.22;;
78508;SDS011;67802;50.846;7.958;2023-08-31T11:57:08;6.28;;;2.20;;
78508;SDS011;67802;50.846;7.958;2023-08-31T11:59:38;6.05;;;2.50;;
78508;SDS011;67802;50.846;7.958;2023-08-31T12:02:07;6.88;;;2.25;;
78508;SDS011;67802;50.846;7.958;2023-08-31T12:04:41;6.30;;;2.08;;
78508;SDS011;67802;50.846;7.958;2023-08-31T12:07:11;5.47;;;2.15;;
78508;SDS011;67802;50.846;7.958;2023-08-31T12:09:41;5.45;;;2.15;;
78508;SDS011;67802;50.846;7.958;2023-08-31T12:12:09;6.55;;;2.20;;
78508;SDS011;67802;50.846;7.958;2023-08-31T12:14:36;5.25;;;2.30;;
78508;SDS011;67802;50.846;7.958;2023-08-31T12:17:05;6.35;;;2.05;;
78508;SDS011;67802;50.846;7.958;2023-08-31T12:19:33;5.90;;;2.00;;
78508;SDS011;67802;50.846;7.958;2023-08-31T12:22:00;5.88;;;2.00;;
78508;SDS011;67802;50.846;7.958;2023-08-31T12:24:26;5.05;;;2.13;;
78508;SDS011;67802;50.846;7.958;2023-08-31T12:26:51;5.68;;;1.80;;
78508;SDS011;67802;50.846;7.958;2023-08-31T12:29:20;4.47;;;1.77;;
78508;SDS011;67802;50.846;7.958;2023-08-31T12:31:46;4.95;;;1.85;;
78508;SDS011;67802;50.846;7.958;2023-08-31T12:34:11;4.60;;;2.05;;
78508;SDS011;67802;50.846;7.958;2023-08-31T12:36:37;4.75;;;1.75;;
78508;SDS011;67802;50.846;7.958;2023-08-31T12:39:05;4.65;;;1.80;;
78508;SDS011;67802;50.846;7.958;2023-08-31T12:41:35;4.50;;;1.63;;
78508;SDS011;67802;50.846;7.958;2023-08-31T12:44:01;4.28;;;1.65;;
78508;SDS011;67802;50.846;7.958;2023-08-31T12:46:30;5.05;;;1.58;;
78508;SDS011;67802;50.846;7.958;2023-08-31T12:48:56;4.25;;;1.38;;
78508;SDS011;67802;50.846;7.958;2023-08-31T12:51:22;5.90;;;1.98;;
78508;SDS011;67802;50.846;7.958;2023-08-31T12:53:47;3.72;;;1.60;;
78508;SDS011;67802;50.846;7.958;2023-08-31T12:56:13;3.72;;;1.60;;
78508;SDS011;67802;50.846;7.958;2023-08-31T12:58:40;4.43;;;1.60;;
78508;SDS011;67802;50.846;7.958;2023-08-31T13:01:05;4.53;;;1.60;;
78508;SDS011;67802;50.846;7.958;2023-08-31T13:03:30;4.28;;;1.48;;
78508;SDS011;67802;50.846;7.958;2023-08-31T13:05:56;4.22;;;1.90;;
78508;SDS011;67802;50.846;7.958;2023-08-31T13:08:21;3.83;;;1.50;;
78508;SDS011;67802;50.846;7.958;2023-08-31T13:10:53;3.75;;;1.42;;
78508;SDS011;67802;50.846;7.958;2023-08-31T13:13:19;3.67;;;1.55;;
78508;SDS011;67802;50.846;7.958;2023-08-31T13:15:45;4.30;;;1.33;;
78508;SDS011;67802;50.846;7.958;2023-08-31T13:18:11;4.57;;;1.30;;
78508;SDS011;67802;50.846;7.958;2023-08-31T13:20:36;4.40;;;1.42;;
78508;SDS011;67802;50.846;7.958;2023-08-31T13:23:02;5.00;;;1.50;;
78508;SDS011;67802;50.846;7.958;2023-08-31T13:25:28;3.45;;;1.27;;
78508;SDS011;67802;50.846;7.958;2023-08-31T13:27:53;4.05;;;1.35;;
78508;SDS011;67802;50.846;7.958;2023-08-31T13:30:18;3.97;;;1.40;;
78508;SDS011;67802;50.846;7.958;2023-08-31T13:32:44;3.55;;;1.33;;
78508;SDS011;67802;50.846;7.958;2023-08-31T13:35:09;3.00;;;1.20;;
78508;SDS011;67802;50.846;7.958;2023-08-31T13:37:35;3.05;;;1.25;;
78508;SDS011;67802;50.846;7.958;2023-08-31T13:40:00;3.40;;;1.40;;
78508;SDS011;67802;50.846;7.958;2023-08-31T13:42:26;6.20;;;1.23;;
78508;SDS011;67802;50.846;7.958;2023-08-31T13:44:51;3.65;;;1.45;;
78508;SDS011;67802;50.846;7.958;2023-08-31T13:47:17;3.60;;;1.40;;
78508;SDS011;67802;50.846;7.958;2023-08-31T13:49:42;6.18;;;1.30;;
78508;SDS011;67802;50.846;7.958;2023-08-31T13:52:07;4.40;;;1.33;;
78508;SDS011;67802;50.846;7.958;2023-08-31T13:54:35;5.82;;;1.20;;
78508;SDS011;67802;50.846;7.958;2023-08-31T13:57:00;2.85;;;1.10;;
78508;SDS011;67802;50.846;7.958;2023-08-31T13:59:26;2.90;;;1.10;;
78508;SDS011;67802;50.846;7.958;2023-08-31T14:01:54;3.03;;;1.13;;
78508;SDS011;67802;50.846;7.958;2023-08-31T14:04:19;3.88;;;1.38;;
78508;SDS011;67802;50.846;7.958;2023-08-31T14:06:47;3.63;;;1.33;;
78508;SDS011;67802;50.846;7.958;2023-08-31T14:09:13;4.40;;;1.30;;
78508;SDS011;67802;50.846;7.958;2023-08-31T14:11:39;3.70;;;1.45;;
78508;SDS011;67802;50.846;7.958;2023-08-31T14:14:05;2.08;;;0.93;;
78508;SDS011;67802;50.846;7.958;2023-08-31T14:16:35;3.70;;;1.25;;
78508;SDS011;67802;50.846;7.958;2023-08-31T14:19:04;3.50;;;1.38;;
78508;SDS011;67802;50.846;7.958;2023-08-31T14:21:30;2.78;;;1.15;;
78508;SDS011;67802;50.846;7.958;2023-08-31T14:23:55;2.75;;;1.15;;
78508;SDS011;67802;50.846;7.958;2023-08-31T14:26:24;2.75;;;1.00;;
78508;SDS011;67802;50.846;7.958;2023-08-31T14:28:50;2.35;;;1.10;;
78508;SDS011;67802;50.846;7.958;2023-08-31T14:31:16;3.10;;;1.10;;
78508;SDS011;67802;50.846;7.958;2023-08-31T14:33:42;3.50;;;1.20;;
78508;SDS011;67802;50.846;7.958;2023-08-31T14:36:07;5.63;;;1.20;;
78508;SDS011;67802;50.846;7.958;2023-08-31T14:38:33;4.50;;;1.20;;
78508;SDS011;67802;50.846;7.958;2023-08-31T14:40:58;3.38;;;1.10;;
78508;SDS011;67802;50.846;7.958;2023-08-31T14:43:23;4.93;;;1.30;;
78508;SDS011;67802;50.846;7.958;2023-08-31T14:45:49;2.50;;;1.17;;
78508;SDS011;67802;50.846;7.958;2023-08-31T14:48:14;2.13;;;1.00;;
78508;SDS011;67802;50.846;7.958;2023-08-31T14:50:41;3.65;;;1.10;;
78508;SDS011;67802;50.846;7.958;2023-08-31T14:53:07;2.85;;;1.10;;
78508;SDS011;67802;50.846;7.958;2023-08-31T14:55:33;4.93;;;1.10;;
78508;SDS011;67802;50.846;7.958;2023-08-31T14:57:58;3.40;;;1.10;;
78508;SDS011;67802;50.846;7.958;2023-08-31T15:00:23;4.00;;;1.40;;
78508;SDS011;67802;50.846;7.958;2023-08-31T15:02:49;3.60;;;1.13;;
78508;SDS011;67802;50.846;7.958;2023-08-31T15:05:14;3.05;;;1.27;;